sensor_id;sensor_type;location;lat;lon;timestamp;pressure;altitude;pressure_sealevel;temperature;humidity
8758;BME280;4415;42.152;24.744;2023-07-29T00:00:15;99260.34;;;21.47;nan
8758;BME280;4415;42.152;24.744;2023-07-29T00:02:40;99270.66;;;21.54;nan
8758;BME280;4415;42.152;24.744;2023-07-29T00:05:06;99221.41;;;21.45;nan
8758;BME280;4415;42.152;24.744;2023-07-29T00:09:57;99242.69;;;21.26;nan
8758;BME280;4415;42.152;24.744;2023-07-29T00:12:23;99260.94;;;21.37;nan
8758;BME280;4415;42.152;24.744;2023-07-29T00:14:48;99253.19;;;21.43;nan
8758;BME280;4415;42.152;24.744;2023-07-29T00:19:39;99233.16;;;21.20;nan
8758;BME280;4415;42.152;24.744;2023-07-29T00:22:04;99256.75;;;21.21;nan
8758;BME280;4415;42.152;24.744;2023-07-29T00:24:30;99192.28;;;21.14;nan
8758;BME280;4415;42.152;24.744;2023-07-29T00:26:55;99247.31;;;21.22;nan
8758;BME280;4415;42.152;24.744;2023-07-29T00:29:21;99266.44;;;21.37;nan
8758;BME280;4415;42.152;24.744;2023-07-29T00:34:11;99242.63;;;21.22;nan
8758;BME280;4415;42.152;24.744;2023-07-29T00:36:42;99264.13;;;21.39;nan
8758;BME280;4415;42.152;24.744;2023-07-29T00:39:07;99244.97;;;21.20;nan
8758;BME280;4415;42.152;24.744;2023-07-29T00:41:33;99269.63;;;21.39;nan
8758;BME280;4415;42.152;24.744;2023-07-29T00:43:58;99245.06;;;21.27;nan
8758;BME280;4415;42.152;24.744;2023-07-29T00:46:24;99253.88;;;21.36;nan
8758;BME280;4415;42.152;24.744;2023-07-29T00:48:49;99251.44;;;21.31;nan
8758;BME280;4415;42.152;24.744;2023-07-29T00:51:15;99267.91;;;21.31;nan
8758;BME280;4415;42.152;24.744;2023-07-29T00:53:40;99236.72;;;21.20;nan
8758;BME280;4415;42.152;24.744;2023-07-29T00:56:06;99260.72;;;21.23;nan
8758;BME280;4415;42.152;24.744;2023-07-29T00:58:32;99249.72;;;21.23;nan
8758;BME280;4415;42.152;24.744;2023-07-29T01:00:57;99249.84;;;21.30;nan
8758;BME280;4415;42.152;24.744;2023-07-29T01:03:23;99257.59;;;21.25;nan
8758;BME280;4415;42.152;24.744;2023-07-29T01:08:56;99240.84;;;21.10;nan
8758;BME280;4415;42.152;24.744;2023-07-29T01:14:04;99258.59;;;21.13;nan
8758;BME280;4415;42.152;24.744;2023-07-29T01:16:36;99253.44;;;21.11;nan
8758;BME280;4415;42.152;24.744;2023-07-29T01:19:05;99247.16;;;21.11;nan
8758;BME280;4415;42.152;24.744;2023-07-29T01:21:35;99239.06;;;20.99;nan
8758;BME280;4415;42.152;24.744;2023-07-29T01:24:01;99253.16;;;20.97;nan
8758;BME280;4415;42.152;24.744;2023-07-29T01:26:26;99245.50;;;21.06;nan
8758;BME280;4415;42.152;24.744;2023-07-29T01:28:55;99191.06;;;21.12;nan
8758;BME280;4415;42.152;24.744;2023-07-29T01:31:33;99257.97;;;21.04;nan
8758;BME280;4415;42.152;24.744;2023-07-29T01:34:13;99252.38;;;20.97;nan
8758;BME280;4415;42.152;24.744;2023-07-29T01:36:41;99232.66;;;20.91;nan
8758;BME280;4415;42.152;24.744;2023-07-29T01:39:08;99222.31;;;20.85;nan
8758;BME280;4415;42.152;24.744;2023-07-29T01:44:02;99252.22;;;20.90;nan
8758;BME280;4415;42.152;24.744;2023-07-29T01:46:28;99244.88;;;20.75;nan
8758;BME280;4415;42.152;24.744;2023-07-29T01:48:53;99255.16;;;20.78;nan
8758;BME280;4415;42.152;24.744;2023-07-29T01:51:19;99256.66;;;20.75;nan
8758;BME280;4415;42.152;24.744;2023-07-29T01:53:44;99262.75;;;20.65;nan
8758;BME280;4415;42.152;24.744;2023-07-29T01:56:10;99245.78;;;20.40;nan
8758;BME280;4415;42.152;24.744;2023-07-29T01:58:35;99264.78;;;20.49;nan
8758;BME280;4415;42.152;24.744;2023-07-29T02:01:01;99261.56;;;20.47;nan
8758;BME280;4415;42.152;24.744;2023-07-29T02:10:42;99339.09;;;20.60;nan
8758;BME280;4415;42.152;24.744;2023-07-29T02:13:10;99278.03;;;20.47;nan
8758;BME280;4415;42.152;24.744;2023-07-29T02:15:35;99268.44;;;20.37;nan
8758;BME280;4415;42.152;24.744;2023-07-29T02:20:27;99287.38;;;20.42;nan
8758;BME280;4415;42.152;24.744;2023-07-29T02:22:52;99282.38;;;20.29;nan
8758;BME280;4415;42.152;24.744;2023-07-29T02:27:43;99270.59;;;20.28;nan
8758;BME280;4415;42.152;24.744;2023-07-29T02:30:08;99274.50;;;20.27;nan
8758;BME280;4415;42.152;24.744;2023-07-29T02:32:37;99279.19;;;20.27;nan
8758;BME280;4415;42.152;24.744;2023-07-29T02:35:03;99312.91;;;20.27;nan
8758;BME280;4415;42.152;24.744;2023-07-29T02:42:20;99263.06;;;20.06;nan
8758;BME280;4415;42.152;24.744;2023-07-29T02:47:11;99283.75;;;20.23;nan
8758;BME280;4415;42.152;24.744;2023-07-29T02:49:36;99280.50;;;20.17;nan
8758;BME280;4415;42.152;24.744;2023-07-29T02:52:01;99281.25;;;20.14;nan
8758;BME280;4415;42.152;24.744;2023-07-29T02:54:27;99277.03;;;20.01;nan
8758;BME280;4415;42.152;24.744;2023-07-29T02:56:53;99282.69;;;20.08;nan
8758;BME280;4415;42.152;24.744;2023-07-29T02:59:18;99272.56;;;20.12;nan
8758;BME280;4415;42.152;24.744;2023-07-29T03:04:09;99279.56;;;20.10;nan
8758;BME280;4415;42.152;24.744;2023-07-29T03:06:34;99278.13;;;20.16;nan
8758;BME280;4415;42.152;24.744;2023-07-29T03:08:59;99283.53;;;20.12;nan
8758;BME280;4415;42.152;24.744;2023-07-29T03:11:25;99287.34;;;20.08;nan
8758;BME280;4415;42.152;24.744;2023-07-29T03:16:17;99288.78;;;20.02;nan
8758;BME280;4415;42.152;24.744;2023-07-29T03:18:43;99275.88;;;20.02;nan
8758;BME280;4415;42.152;24.744;2023-07-29T03:21:10;99273.44;;;19.81;nan
8758;BME280;4415;42.152;24.744;2023-07-29T03:23:36;99292.38;;;19.86;nan
8758;BME280;4415;42.152;24.744;2023-07-29T03:26:03;99297.22;;;19.93;nan
8758;BME280;4415;42.152;24.744;2023-07-29T03:28:37;99301.94;;;20.27;nan
8758;BME280;4415;42.152;24.744;2023-07-29T03:31:02;99298.16;;;20.70;nan
8758;BME280;4415;42.152;24.744;2023-07-29T03:35:53;99318.72;;;21.86;nan
8758;BME280;4415;42.152;24.744;2023-07-29T03:38:19;99288.72;;;22.04;nan
8758;BME280;4415;42.152;24.744;2023-07-29T03:40:44;99315.69;;;22.77;nan
8758;BME280;4415;42.152;24.744;2023-07-29T03:43:10;99388.63;;;23.20;nan
8758;BME280;4415;42.152;24.744;2023-07-29T03:45:36;99323.38;;;23.31;nan
8758;BME280;4415;42.152;24.744;2023-07-29T03:50:28;99306.53;;;23.83;nan
8758;BME280;4415;42.152;24.744;2023-07-29T03:52:53;99305.25;;;24.25;nan
8758;BME280;4415;42.152;24.744;2023-07-29T03:55:19;99317.34;;;24.78;nan
8758;BME280;4415;42.152;24.744;2023-07-29T03:57:45;99322.25;;;25.27;nan
8758;BME280;4415;42.152;24.744;2023-07-29T04:02:36;99331.75;;;26.46;nan
8758;BME280;4415;42.152;24.744;2023-07-29T04:05:05;99330.91;;;26.77;nan
8758;BME280;4415;42.152;24.744;2023-07-29T04:07:31;99315.31;;;27.66;nan
8758;BME280;4415;42.152;24.744;2023-07-29T04:09:57;99311.50;;;28.35;nan
8758;BME280;4415;42.152;24.744;2023-07-29T04:12:23;99320.97;;;28.41;nan
8758;BME280;4415;42.152;24.744;2023-07-29T04:14:49;99307.59;;;28.97;nan
8758;BME280;4415;42.152;24.744;2023-07-29T04:17:14;99316.38;;;29.25;nan
8758;BME280;4415;42.152;24.744;2023-07-29T04:19:40;99313.00;;;29.11;nan
8758;BME280;4415;42.152;24.744;2023-07-29T04:22:05;99368.06;;;29.53;nan
8758;BME280;4415;42.152;24.744;2023-07-29T04:24:31;99338.72;;;29.98;nan
8758;BME280;4415;42.152;24.744;2023-07-29T04:26:57;99316.28;;;29.59;nan
8758;BME280;4415;42.152;24.744;2023-07-29T04:29:22;99313.16;;;28.97;nan
8758;BME280;4415;42.152;24.744;2023-07-29T04:31:49;99330.38;;;29.72;nan
8758;BME280;4415;42.152;24.744;2023-07-29T04:34:14;99321.16;;;30.01;nan
8758;BME280;4415;42.152;24.744;2023-07-29T04:36:40;99403.75;;;30.12;nan
8758;BME280;4415;42.152;24.744;2023-07-29T04:39:05;99335.19;;;30.18;nan
8758;BME280;4415;42.152;24.744;2023-07-29T04:41:31;99342.03;;;29.90;nan
8758;BME280;4415;42.152;24.744;2023-07-29T04:43:56;99343.00;;;29.80;nan
8758;BME280;4415;42.152;24.744;2023-07-29T04:46:21;99337.03;;;30.47;nan
8758;BME280;4415;42.152;24.744;2023-07-29T04:48:47;99343.94;;;30.63;nan
8758;BME280;4415;42.152;24.744;2023-07-29T04:51:12;99331.78;;;30.92;nan
8758;BME280;4415;42.152;24.744;2023-07-29T04:53:38;99330.72;;;29.51;nan
8758;BME280;4415;42.152;24.744;2023-07-29T04:56:03;99327.50;;;29.25;nan
8758;BME280;4415;42.152;24.744;2023-07-29T04:58:29;99436.75;;;30.40;nan
8758;BME280;4415;42.152;24.744;2023-07-29T05:00:55;99340.59;;;31.78;nan
8758;BME280;4415;42.152;24.744;2023-07-29T05:03:21;99332.97;;;32.27;nan
8758;BME280;4415;42.152;24.744;2023-07-29T05:05:46;99435.88;;;32.65;nan
8758;BME280;4415;42.152;24.744;2023-07-29T05:10:37;99349.28;;;32.74;nan
8758;BME280;4415;42.152;24.744;2023-07-29T05:13:02;99346.41;;;32.90;nan
8758;BME280;4415;42.152;24.744;2023-07-29T05:15:28;99341.47;;;33.73;nan
8758;BME280;4415;42.152;24.744;2023-07-29T05:17:53;99353.22;;;33.30;nan
8758;BME280;4415;42.152;24.744;2023-07-29T05:20:18;99356.84;;;32.61;nan
8758;BME280;4415;42.152;24.744;2023-07-29T05:22:44;99351.69;;;33.01;nan
8758;BME280;4415;42.152;24.744;2023-07-29T05:25:09;99350.44;;;35.27;nan
8758;BME280;4415;42.152;24.744;2023-07-29T05:27:35;99349.38;;;34.25;nan
8758;BME280;4415;42.152;24.744;2023-07-29T05:30:00;99352.22;;;33.87;nan
8758;BME280;4415;42.152;24.744;2023-07-29T05:32:26;99354.13;;;34.71;nan
8758;BME280;4415;42.152;24.744;2023-07-29T05:34:51;99356.84;;;36.07;nan
8758;BME280;4415;42.152;24.744;2023-07-29T05:37:16;99355.94;;;34.87;nan
8758;BME280;4415;42.152;24.744;2023-07-29T05:39:42;99335.28;;;35.03;nan
8758;BME280;4415;42.152;24.744;2023-07-29T05:42:07;99349.09;;;36.75;nan
8758;BME280;4415;42.152;24.744;2023-07-29T05:44:33;99356.97;;;37.31;nan
8758;BME280;4415;42.152;24.744;2023-07-29T05:46:58;99379.47;;;37.49;nan
8758;BME280;4415;42.152;24.744;2023-07-29T05:49:24;99361.00;;;38.28;nan
8758;BME280;4415;42.152;24.744;2023-07-29T05:51:49;99370.53;;;38.78;nan
8758;BME280;4415;42.152;24.744;2023-07-29T05:54:18;99358.44;;;38.15;nan
8758;BME280;4415;42.152;24.744;2023-07-29T05:56:43;99379.25;;;36.47;nan
8758;BME280;4415;42.152;24.744;2023-07-29T05:59:09;99359.97;;;36.09;nan
8758;BME280;4415;42.152;24.744;2023-07-29T06:01:34;99363.63;;;36.91;nan
8758;BME280;4415;42.152;24.744;2023-07-29T06:04:00;99365.41;;;35.95;nan
8758;BME280;4415;42.152;24.744;2023-07-29T06:06:25;99367.84;;;36.69;nan
8758;BME280;4415;42.152;24.744;2023-07-29T06:08:51;99374.22;;;35.13;nan
8758;BME280;4415;42.152;24.744;2023-07-29T06:11:16;99348.28;;;36.74;nan
8758;BME280;4415;42.152;24.744;2023-07-29T06:13:42;99367.53;;;36.94;nan
8758;BME280;4415;42.152;24.744;2023-07-29T06:16:07;99348.63;;;36.49;nan
8758;BME280;4415;42.152;24.744;2023-07-29T06:18:32;99359.72;;;36.71;nan
8758;BME280;4415;42.152;24.744;2023-07-29T06:20:58;99374.19;;;37.24;nan
8758;BME280;4415;42.152;24.744;2023-07-29T06:23:23;99366.44;;;37.00;nan
8758;BME280;4415;42.152;24.744;2023-07-29T06:25:49;99363.13;;;39.39;nan
8758;BME280;4415;42.152;24.744;2023-07-29T06:28:14;99345.22;;;40.12;nan
8758;BME280;4415;42.152;24.744;2023-07-29T06:30:40;99358.31;;;37.86;nan
8758;BME280;4415;42.152;24.744;2023-07-29T06:33:05;99357.28;;;39.13;nan
8758;BME280;4415;42.152;24.744;2023-07-29T06:35:31;99360.28;;;40.43;nan
8758;BME280;4415;42.152;24.744;2023-07-29T06:37:56;99326.72;;;39.26;nan
8758;BME280;4415;42.152;24.744;2023-07-29T06:40:22;99354.56;;;39.63;nan
8758;BME280;4415;42.152;24.744;2023-07-29T06:42:47;99358.47;;;38.92;nan
8758;BME280;4415;42.152;24.744;2023-07-29T06:45:13;99331.69;;;38.35;nan
8758;BME280;4415;42.152;24.744;2023-07-29T06:47:38;99351.47;;;38.26;nan
8758;BME280;4415;42.152;24.744;2023-07-29T06:50:04;99358.94;;;40.39;nan
8758;BME280;4415;42.152;24.744;2023-07-29T06:52:30;99351.47;;;41.07;nan
8758;BME280;4415;42.152;24.744;2023-07-29T06:54:55;99349.25;;;41.17;nan
8758;BME280;4415;42.152;24.744;2023-07-29T06:57:20;99363.41;;;40.45;nan
8758;BME280;4415;42.152;24.744;2023-07-29T06:59:46;99352.53;;;42.85;nan
8758;BME280;4415;42.152;24.744;2023-07-29T07:02:11;99353.22;;;40.53;nan
8758;BME280;4415;42.152;24.744;2023-07-29T07:04:37;99356.81;;;42.47;nan
8758;BME280;4415;42.152;24.744;2023-07-29T07:07:02;99363.00;;;40.52;nan
8758;BME280;4415;42.152;24.744;2023-07-29T07:09:28;99335.66;;;39.39;nan
8758;BME280;4415;42.152;24.744;2023-07-29T07:11:53;99342.41;;;39.77;nan
8758;BME280;4415;42.152;24.744;2023-07-29T07:14:18;99347.75;;;39.11;nan
8758;BME280;4415;42.152;24.744;2023-07-29T07:16:44;99339.38;;;38.87;nan
8758;BME280;4415;42.152;24.744;2023-07-29T07:19:10;99424.94;;;37.15;nan
8758;BME280;4415;42.152;24.744;2023-07-29T07:21:35;99339.84;;;36.65;nan
8758;BME280;4415;42.152;24.744;2023-07-29T07:24:01;99341.09;;;36.73;nan
8758;BME280;4415;42.152;24.744;2023-07-29T07:26:26;99323.63;;;36.51;nan
8758;BME280;4415;42.152;24.744;2023-07-29T07:28:51;99336.25;;;36.74;nan
8758;BME280;4415;42.152;24.744;2023-07-29T07:31:17;99322.31;;;36.79;nan
8758;BME280;4415;42.152;24.744;2023-07-29T07:33:42;99322.00;;;36.41;nan
8758;BME280;4415;42.152;24.744;2023-07-29T07:36:08;99316.88;;;36.39;nan
8758;BME280;4415;42.152;24.744;2023-07-29T07:38:33;99325.00;;;36.56;nan
8758;BME280;4415;42.152;24.744;2023-07-29T07:40:58;99317.78;;;36.91;nan
8758;BME280;4415;42.152;24.744;2023-07-29T07:43:24;99314.13;;;37.83;nan
8758;BME280;4415;42.152;24.744;2023-07-29T07:45:51;99316.66;;;37.81;nan
8758;BME280;4415;42.152;24.744;2023-07-29T07:48:16;99296.81;;;37.43;nan
8758;BME280;4415;42.152;24.744;2023-07-29T07:50:42;99297.94;;;36.67;nan
8758;BME280;4415;42.152;24.744;2023-07-29T07:53:08;99303.59;;;37.18;nan
8758;BME280;4415;42.152;24.744;2023-07-29T07:55:33;99303.53;;;36.85;nan
8758;BME280;4415;42.152;24.744;2023-07-29T07:57:59;99294.66;;;37.85;nan
8758;BME280;4415;42.152;24.744;2023-07-29T08:00:24;99317.75;;;38.84;nan
8758;BME280;4415;42.152;24.744;2023-07-29T08:02:49;99300.31;;;37.85;nan
8758;BME280;4415;42.152;24.744;2023-07-29T08:05:15;99285.97;;;39.04;nan
8758;BME280;4415;42.152;24.744;2023-07-29T08:07:40;99286.66;;;40.43;nan
8758;BME280;4415;42.152;24.744;2023-07-29T08:10:06;99290.75;;;38.30;nan
8758;BME280;4415;42.152;24.744;2023-07-29T08:12:32;99274.09;;;39.14;nan
8758;BME280;4415;42.152;24.744;2023-07-29T08:14:57;99285.78;;;40.32;nan
8758;BME280;4415;42.152;24.744;2023-07-29T08:17:23;99279.88;;;40.35;nan
8758;BME280;4415;42.152;24.744;2023-07-29T08:19:48;99246.38;;;39.88;nan
8758;BME280;4415;42.152;24.744;2023-07-29T08:22:14;99284.50;;;39.58;nan
8758;BME280;4415;42.152;24.744;2023-07-29T08:24:39;99251.25;;;38.83;nan
8758;BME280;4415;42.152;24.744;2023-07-29T08:27:05;99255.56;;;38.55;nan
8758;BME280;4415;42.152;24.744;2023-07-29T08:29:31;99268.03;;;39.21;nan
8758;BME280;4415;42.152;24.744;2023-07-29T08:31:56;99255.56;;;37.78;nan
8758;BME280;4415;42.152;24.744;2023-07-29T08:34:21;99263.91;;;37.40;nan
8758;BME280;4415;42.152;24.744;2023-07-29T08:36:47;99247.00;;;39.22;nan
8758;BME280;4415;42.152;24.744;2023-07-29T08:39:12;99258.56;;;39.59;nan
8758;BME280;4415;42.152;24.744;2023-07-29T08:41:49;99253.88;;;40.11;nan
8758;BME280;4415;42.152;24.744;2023-07-29T08:44:22;99238.59;;;39.13;nan
8758;BME280;4415;42.152;24.744;2023-07-29T08:46:52;99238.19;;;40.56;nan
8758;BME280;4415;42.152;24.744;2023-07-29T08:49:19;99251.22;;;41.05;nan
8758;BME280;4415;42.152;24.744;2023-07-29T08:54:13;99244.41;;;38.22;nan
8758;BME280;4415;42.152;24.744;2023-07-29T08:56:40;99223.25;;;40.35;nan
8758;BME280;4415;42.152;24.744;2023-07-29T08:59:07;99240.59;;;41.31;nan
8758;BME280;4415;42.152;24.744;2023-07-29T09:01:33;99240.09;;;41.01;nan
8758;BME280;4415;42.152;24.744;2023-07-29T09:03:59;99224.13;;;41.83;nan
8758;BME280;4415;42.152;24.744;2023-07-29T09:06:25;99252.81;;;40.29;nan
8758;BME280;4415;42.152;24.744;2023-07-29T09:08:53;99242.25;;;40.81;nan
8758;BME280;4415;42.152;24.744;2023-07-29T09:11:19;99220.00;;;41.36;nan
8758;BME280;4415;42.152;24.744;2023-07-29T09:13:45;99226.75;;;41.92;nan
8758;BME280;4415;42.152;24.744;2023-07-29T09:16:11;99236.88;;;40.88;nan
8758;BME280;4415;42.152;24.744;2023-07-29T09:18:37;99219.41;;;39.52;nan
8758;BME280;4415;42.152;24.744;2023-07-29T09:21:02;99221.88;;;38.37;nan
8758;BME280;4415;42.152;24.744;2023-07-29T09:26:01;99194.03;;;40.75;nan
8758;BME280;4415;42.152;24.744;2023-07-29T09:28:33;99218.78;;;41.06;nan
8758;BME280;4415;42.152;24.744;2023-07-29T09:30:59;99209.66;;;40.96;nan
8758;BME280;4415;42.152;24.744;2023-07-29T09:33:28;99204.59;;;40.75;nan
8758;BME280;4415;42.152;24.744;2023-07-29T09:35:54;99195.47;;;41.76;nan
8758;BME280;4415;42.152;24.744;2023-07-29T09:38:28;99190.09;;;41.83;nan
8758;BME280;4415;42.152;24.744;2023-07-29T09:40:57;99191.38;;;41.88;nan
8758;BME280;4415;42.152;24.744;2023-07-29T09:43:31;99187.63;;;39.77;nan
8758;BME280;4415;42.152;24.744;2023-07-29T09:46:05;99192.34;;;39.86;nan
8758;BME280;4415;42.152;24.744;2023-07-29T09:48:37;99182.28;;;40.31;nan
8758;BME280;4415;42.152;24.744;2023-07-29T09:51:15;99178.06;;;40.46;nan
8758;BME280;4415;42.152;24.744;2023-07-29T09:53:42;99180.41;;;41.58;nan
8758;BME280;4415;42.152;24.744;2023-07-29T09:56:08;99162.72;;;41.80;nan
8758;BME280;4415;42.152;24.744;2023-07-29T09:58:33;99187.72;;;41.23;nan
8758;BME280;4415;42.152;24.744;2023-07-29T10:01:00;99186.84;;;41.11;nan
8758;BME280;4415;42.152;24.744;2023-07-29T10:03:26;99170.00;;;42.03;nan
8758;BME280;4415;42.152;24.744;2023-07-29T10:05:53;99179.63;;;41.58;nan
8758;BME280;4415;42.152;24.744;2023-07-29T10:08:18;99182.03;;;39.83;nan
8758;BME280;4415;42.152;24.744;2023-07-29T10:10:44;99162.47;;;40.88;nan
8758;BME280;4415;42.152;24.744;2023-07-29T10:13:10;99168.25;;;41.47;nan
8758;BME280;4415;42.152;24.744;2023-07-29T10:15:36;99173.50;;;41.17;nan
8758;BME280;4415;42.152;24.744;2023-07-29T10:18:02;99170.81;;;39.68;nan
8758;BME280;4415;42.152;24.744;2023-07-29T10:20:30;99169.19;;;40.33;nan
8758;BME280;4415;42.152;24.744;2023-07-29T10:22:56;99168.09;;;40.25;nan
8758;BME280;4415;42.152;24.744;2023-07-29T10:25:24;99167.25;;;39.18;nan
8758;BME280;4415;42.152;24.744;2023-07-29T10:27:56;99149.09;;;40.06;nan
8758;BME280;4415;42.152;24.744;2023-07-29T10:30:24;99159.59;;;39.79;nan
8758;BME280;4415;42.152;24.744;2023-07-29T10:32:51;99162.84;;;38.97;nan
8758;BME280;4415;42.152;24.744;2023-07-29T10:35:17;99154.50;;;39.83;nan
8758;BME280;4415;42.152;24.744;2023-07-29T10:37:43;99155.22;;;38.39;nan
8758;BME280;4415;42.152;24.744;2023-07-29T10:40:11;99156.84;;;39.85;nan
8758;BME280;4415;42.152;24.744;2023-07-29T10:42:38;99142.31;;;39.97;nan
8758;BME280;4415;42.152;24.744;2023-07-29T10:45:20;99138.31;;;40.35;nan
8758;BME280;4415;42.152;24.744;2023-07-29T10:47:45;99142.88;;;40.53;nan
8758;BME280;4415;42.152;24.744;2023-07-29T10:50:20;99135.84;;;38.61;nan
8758;BME280;4415;42.152;24.744;2023-07-29T10:52:49;99131.81;;;38.83;nan
8758;BME280;4415;42.152;24.744;2023-07-29T10:55:29;99100.44;;;38.46;nan
8758;BME280;4415;42.152;24.744;2023-07-29T10:58:12;99124.53;;;38.76;nan
8758;BME280;4415;42.152;24.744;2023-07-29T11:00:38;99113.38;;;38.87;nan
8758;BME280;4415;42.152;24.744;2023-07-29T11:03:07;99113.03;;;38.65;nan
8758;BME280;4415;42.152;24.744;2023-07-29T11:05:43;99116.91;;;38.82;nan
8758;BME280;4415;42.152;24.744;2023-07-29T11:08:35;99108.56;;;38.58;nan
8758;BME280;4415;42.152;24.744;2023-07-29T11:11:08;99113.06;;;38.50;nan
8758;BME280;4415;42.152;24.744;2023-07-29T11:13:37;99104.69;;;38.27;nan
8758;BME280;4415;42.152;24.744;2023-07-29T11:16:03;99109.31;;;38.88;nan
8758;BME280;4415;42.152;24.744;2023-07-29T11:18:32;99098.88;;;39.14;nan
8758;BME280;4415;42.152;24.744;2023-07-29T11:20:59;99089.84;;;39.30;nan
8758;BME280;4415;42.152;24.744;2023-07-29T11:23:35;99092.81;;;38.52;nan
8758;BME280;4415;42.152;24.744;2023-07-29T11:26:02;99091.41;;;38.62;nan
8758;BME280;4415;42.152;24.744;2023-07-29T11:28:29;99082.28;;;38.67;nan
8758;BME280;4415;42.152;24.744;2023-07-29T11:30:57;99088.91;;;38.20;nan
8758;BME280;4415;42.152;24.744;2023-07-29T11:33:24;99094.72;;;38.60;nan
8758;BME280;4415;42.152;24.744;2023-07-29T11:35:51;99076.25;;;39.14;nan
8758;BME280;4415;42.152;24.744;2023-07-29T11:38:18;99088.50;;;39.26;nan
8758;BME280;4415;42.152;24.744;2023-07-29T11:40:53;99074.63;;;38.88;nan
8758;BME280;4415;42.152;24.744;2023-07-29T11:43:19;99079.56;;;38.58;nan
8758;BME280;4415;42.152;24.744;2023-07-29T11:45:44;99080.19;;;38.67;nan
8758;BME280;4415;42.152;24.744;2023-07-29T11:48:10;99073.28;;;38.68;nan
8758;BME280;4415;42.152;24.744;2023-07-29T11:50:35;99075.63;;;38.70;nan
8758;BME280;4415;42.152;24.744;2023-07-29T11:53:01;99063.34;;;38.73;nan
8758;BME280;4415;42.152;24.744;2023-07-29T11:55:26;99069.47;;;39.06;nan
8758;BME280;4415;42.152;24.744;2023-07-29T11:57:52;99078.38;;;38.64;nan
8758;BME280;4415;42.152;24.744;2023-07-29T12:00:17;99051.47;;;38.69;nan
8758;BME280;4415;42.152;24.744;2023-07-29T12:02:44;99057.78;;;38.29;nan
8758;BME280;4415;42.152;24.744;2023-07-29T12:05:10;99061.28;;;38.53;nan
8758;BME280;4415;42.152;24.744;2023-07-29T12:07:42;99061.72;;;38.66;nan
8758;BME280;4415;42.152;24.744;2023-07-29T12:10:09;99051.34;;;37.70;nan
8758;BME280;4415;42.152;24.744;2023-07-29T12:12:43;99090.66;;;37.12;nan
8758;BME280;4415;42.152;24.744;2023-07-29T12:15:09;99050.47;;;37.26;nan
8758;BME280;4415;42.152;24.744;2023-07-29T12:17:40;99052.31;;;37.52;nan
8758;BME280;4415;42.152;24.744;2023-07-29T12:20:08;99029.25;;;37.16;nan
8758;BME280;4415;42.152;24.744;2023-07-29T12:22:34;99052.53;;;37.01;nan
8758;BME280;4415;42.152;24.744;2023-07-29T12:24:59;99033.81;;;36.24;nan
8758;BME280;4415;42.152;24.744;2023-07-29T12:27:24;99049.13;;;36.23;nan
8758;BME280;4415;42.152;24.744;2023-07-29T12:29:53;99029.06;;;36.72;nan
8758;BME280;4415;42.152;24.744;2023-07-29T12:32:19;99013.31;;;35.81;nan
8758;BME280;4415;42.152;24.744;2023-07-29T12:34:44;99031.41;;;36.40;nan
8758;BME280;4415;42.152;24.744;2023-07-29T12:37:10;99024.31;;;36.21;nan
8758;BME280;4415;42.152;24.744;2023-07-29T12:39:40;98998.56;;;36.70;nan
8758;BME280;4415;42.152;24.744;2023-07-29T12:42:06;99010.03;;;36.67;nan
8758;BME280;4415;42.152;24.744;2023-07-29T12:44:33;99018.34;;;36.61;nan
8758;BME280;4415;42.152;24.744;2023-07-29T12:47:03;99013.84;;;36.55;nan
8758;BME280;4415;42.152;24.744;2023-07-29T12:49:30;98972.28;;;36.50;nan
8758;BME280;4415;42.152;24.744;2023-07-29T12:51:56;99010.38;;;36.27;nan
8758;BME280;4415;42.152;24.744;2023-07-29T12:54:22;99013.75;;;36.40;nan
8758;BME280;4415;42.152;24.744;2023-07-29T12:56:47;99015.28;;;36.41;nan
8758;BME280;4415;42.152;24.744;2023-07-29T12:59:13;99014.78;;;35.32;nan
8758;BME280;4415;42.152;24.744;2023-07-29T13:01:38;99023.34;;;35.19;nan
8758;BME280;4415;42.152;24.744;2023-07-29T13:04:04;99013.53;;;35.23;nan
8758;BME280;4415;42.152;24.744;2023-07-29T13:06:29;99008.03;;;34.84;nan
8758;BME280;4415;42.152;24.744;2023-07-29T13:08:55;99014.94;;;35.28;nan
8758;BME280;4415;42.152;24.744;2023-07-29T13:11:20;99007.75;;;35.27;nan
8758;BME280;4415;42.152;24.744;2023-07-29T13:13:45;99016.28;;;34.96;nan
8758;BME280;4415;42.152;24.744;2023-07-29T13:16:11;99105.41;;;35.14;nan
8758;BME280;4415;42.152;24.744;2023-07-29T13:18:37;99011.47;;;34.97;nan
8758;BME280;4415;42.152;24.744;2023-07-29T13:21:03;99019.44;;;35.35;nan
8758;BME280;4415;42.152;24.744;2023-07-29T13:23:28;99013.03;;;35.52;nan
8758;BME280;4415;42.152;24.744;2023-07-29T13:25:55;99011.94;;;35.41;nan
8758;BME280;4415;42.152;24.744;2023-07-29T13:28:21;99001.50;;;35.59;nan
8758;BME280;4415;42.152;24.744;2023-07-29T13:30:46;99004.13;;;35.72;nan
8758;BME280;4415;42.152;24.744;2023-07-29T13:33:11;99004.63;;;35.25;nan
8758;BME280;4415;42.152;24.744;2023-07-29T13:35:37;99009.59;;;35.03;nan
8758;BME280;4415;42.152;24.744;2023-07-29T13:38:02;99011.50;;;35.15;nan
8758;BME280;4415;42.152;24.744;2023-07-29T13:40:28;99003.53;;;35.32;nan
8758;BME280;4415;42.152;24.744;2023-07-29T13:42:54;98977.63;;;35.18;nan
8758;BME280;4415;42.152;24.744;2023-07-29T13:45:20;99012.59;;;35.08;nan
8758;BME280;4415;42.152;24.744;2023-07-29T13:47:45;98996.81;;;35.02;nan
8758;BME280;4415;42.152;24.744;2023-07-29T13:50:10;99003.22;;;35.02;nan
8758;BME280;4415;42.152;24.744;2023-07-29T13:52:37;98999.91;;;34.86;nan
8758;BME280;4415;42.152;24.744;2023-07-29T13:57:32;98981.50;;;34.85;nan
8758;BME280;4415;42.152;24.744;2023-07-29T13:59:57;98993.97;;;34.93;nan
8758;BME280;4415;42.152;24.744;2023-07-29T14:02:23;98969.56;;;34.44;nan
8758;BME280;4415;42.152;24.744;2023-07-29T14:04:49;98999.75;;;34.31;nan
8758;BME280;4415;42.152;24.744;2023-07-29T14:07:14;98985.97;;;34.15;nan
8758;BME280;4415;42.152;24.744;2023-07-29T14:09:40;98995.22;;;34.25;nan
8758;BME280;4415;42.152;24.744;2023-07-29T14:12:06;98994.75;;;33.95;nan
8758;BME280;4415;42.152;24.744;2023-07-29T14:14:31;98982.94;;;33.70;nan
8758;BME280;4415;42.152;24.744;2023-07-29T14:16:57;98977.84;;;33.77;nan
8758;BME280;4415;42.152;24.744;2023-07-29T14:19:23;98971.59;;;33.73;nan
8758;BME280;4415;42.152;24.744;2023-07-29T14:21:49;98978.84;;;33.92;nan
8758;BME280;4415;42.152;24.744;2023-07-29T14:24:14;98962.50;;;34.22;nan